createdAt,value
2018-08-25T00:02:09.150Z,99509.06
2018-08-25T00:04:36.898Z,99513.32
2018-08-25T00:07:04.642Z,99503.44
2018-08-25T00:09:32.364Z,99510.88
2018-08-25T00:12:00.072Z,99503.95
2018-08-25T00:14:27.745Z,99499.08
2018-08-25T00:16:55.432Z,99502.15
2018-08-25T00:19:23.125Z,99502.57
2018-08-25T00:21:50.825Z,99501.94
2018-08-25T00:24:18.520Z,99504.63
2018-08-25T00:26:46.210Z,99511.69
2018-08-25T00:29:13.945Z,99517.45
2018-08-25T00:31:41.666Z,99519.50
2018-08-25T00:34:09.377Z,99525.12
2018-08-25T00:36:37.089Z,99527.72
2018-08-25T00:39:07.533Z,99533.71
2018-08-25T00:41:35.404Z,99536.13
2018-08-25T00:44:03.155Z,99536.07
2018-08-25T00:46:30.883Z,99528.74
2018-08-25T00:48:58.583Z,99537.61
2018-08-25T00:51:26.314Z,99539.13
2018-08-25T00:53:54.062Z,99542.92
2018-08-25T00:56:21.761Z,99544.30
2018-08-25T00:58:49.486Z,99546.06
2018-08-25T01:01:17.190Z,99543.48
2018-08-25T01:03:44.926Z,99552.34
2018-08-25T01:06:12.645Z,99551.05
2018-08-25T01:08:40.466Z,99534.17
2018-08-25T01:11:08.380Z,99542.25
2018-08-25T01:13:36.309Z,99541.94
2018-08-25T01:16:04.025Z,99534.76
2018-08-25T01:18:31.738Z,99543.29
2018-08-25T01:20:59.516Z,99539.72
2018-08-25T01:23:27.217Z,99536.46
2018-08-25T01:25:54.932Z,99526.50
2018-08-25T01:28:22.633Z,99526.55
2018-08-25T01:30:50.337Z,99531.05
2018-08-25T01:33:18.014Z,99540.23
2018-08-25T01:35:45.753Z,99543.12
2018-08-25T01:38:13.537Z,99547.06
2018-08-25T01:40:41.229Z,99540.62
2018-08-25T01:43:08.915Z,99538.61
2018-08-25T01:45:36.591Z,99538.45
2018-08-25T01:48:04.380Z,99531.42
2018-08-25T01:50:32.096Z,99529.57
2018-08-25T01:52:59.824Z,99535.27
2018-08-25T01:55:27.565Z,99535.50
2018-08-25T01:57:55.248Z,99534.00
2018-08-25T02:00:22.957Z,99531.53
2018-08-25T02:02:50.691Z,99542.66
2018-08-25T02:05:18.524Z,99550.44
2018-08-25T02:07:46.219Z,99557.72
2018-08-25T02:10:14.143Z,99553.75
2018-08-25T02:12:41.870Z,99554.62
2018-08-25T02:15:09.563Z,99561.50
2018-08-25T02:17:37.258Z,99564.47
2018-08-25T02:20:05.574Z,99559.66
2018-08-25T02:22:33.345Z,99557.31
2018-08-25T02:25:01.050Z,99582.25
2018-08-25T02:27:28.762Z,99587.41
2018-08-25T02:29:56.463Z,99590.29
2018-08-25T02:32:24.201Z,99590.91
2018-08-25T02:34:52.062Z,99601.42
2018-08-25T02:37:19.774Z,99599.20
2018-08-25T02:39:47.476Z,99604.52
2018-08-25T02:42:15.285Z,99606.16
2018-08-25T02:44:42.987Z,99606.73
2018-08-25T02:47:10.682Z,99617.56
2018-08-25T02:49:38.388Z,99621.92
2018-08-25T02:52:06.080Z,99623.32
2018-08-25T02:54:33.802Z,99615.76
2018-08-25T02:57:01.508Z,99624.57
2018-08-25T02:59:29.236Z,99619.42
2018-08-25T03:01:56.961Z,99621.05
2018-08-25T03:04:24.670Z,99623.47
2018-08-25T03:06:52.372Z,99620.52
2018-08-25T03:09:20.055Z,99621.09
2018-08-25T03:11:47.789Z,99625.62
2018-08-25T03:14:15.472Z,99619.70
2018-08-25T03:16:43.163Z,99616.88
2018-08-25T03:19:11.018Z,99629.16
2018-08-25T03:21:38.725Z,99635.89
2018-08-25T03:24:06.514Z,99629.13
2018-08-25T03:26:34.305Z,99630.60
2018-08-25T03:29:02.023Z,99636.13
2018-08-25T03:31:29.784Z,99638.70
2018-08-25T03:33:57.506Z,99641.89
2018-08-25T03:36:25.292Z,99645.13
2018-08-25T03:38:52.988Z,99650.54
2018-08-25T03:41:20.696Z,99654.22
2018-08-25T03:43:48.413Z,99660.66
2018-08-25T03:46:16.116Z,99660.66
2018-08-25T03:48:43.827Z,99658.45
2018-08-25T03:51:11.515Z,99663.51
2018-08-25T03:53:39.194Z,99662.10
2018-08-25T03:56:07.054Z,99661.55
2018-08-25T03:58:34.735Z,99659.02
2018-08-25T04:01:02.440Z,99667.83
2018-08-25T04:03:30.128Z,99670.97
2018-08-25T04:05:57.870Z,99677.59
2018-08-25T04:08:25.563Z,99683.98
2018-08-25T04:10:53.284Z,99686.92
2018-08-25T04:13:20.988Z,99688.68
2018-08-25T04:15:48.689Z,99690.88
2018-08-25T04:18:16.388Z,99692.45
2018-08-25T04:20:44.093Z,99688.33
2018-08-25T04:23:11.814Z,99686.09
2018-08-25T04:25:39.526Z,99691.23
2018-08-25T04:28:07.241Z,99696.02
2018-08-25T04:30:34.938Z,99694.24
2018-08-25T04:33:02.628Z,99696.08
2018-08-25T04:35:30.334Z,99692.71
2018-08-25T04:37:58.045Z,99695.62
2018-08-25T04:40:25.777Z,99692.73
2018-08-25T04:42:53.494Z,99690.89
2018-08-25T04:45:21.210Z,99688.11
2018-08-25T04:47:48.897Z,99691.02
2018-08-25T04:50:16.613Z,99692.91
2018-08-25T04:52:44.310Z,99695.76
2018-08-25T04:55:12.012Z,99684.19
2018-08-25T04:57:39.706Z,99686.50
2018-08-25T05:00:07.526Z,99690.95
2018-08-25T05:02:35.231Z,99698.53
2018-08-25T05:05:02.924Z,99699.70
2018-08-25T05:07:30.662Z,99694.62
2018-08-25T05:09:58.391Z,99701.25
2018-08-25T05:12:26.088Z,99703.21
2018-08-25T05:14:53.799Z,99708.36
2018-08-25T05:17:21.603Z,99711.07
2018-08-25T05:19:49.286Z,99712.75
2018-08-25T05:22:17.026Z,99721.75
2018-08-25T05:24:44.701Z,99726.36
2018-08-25T05:27:12.398Z,99728.55
2018-08-25T05:29:40.105Z,99721.75
2018-08-25T05:32:07.805Z,99721.84
2018-08-25T05:34:35.498Z,99730.69
2018-08-25T05:37:03.203Z,99728.61
2018-08-25T05:39:30.928Z,99737.95
2018-08-25T05:41:59.518Z,99737.33
2018-08-25T05:44:27.285Z,99733.81
2018-08-25T05:46:55.135Z,99739.34
2018-08-25T05:49:22.949Z,99742.91
2018-08-25T05:51:50.646Z,99736.91
2018-08-25T05:54:18.333Z,99743.80
2018-08-25T05:56:46.026Z,99736.59
2018-08-25T05:59:13.736Z,99735.55
2018-08-25T06:01:41.446Z,99737.50
2018-08-25T06:04:09.167Z,99736.87
2018-08-25T06:06:37.083Z,99739.58
2018-08-25T06:09:08.076Z,99741.48
2018-08-25T06:11:35.778Z,99737.68
2018-08-25T06:14:03.530Z,99749.97
2018-08-25T06:16:31.231Z,99743.39
2018-08-25T06:18:58.956Z,99734.73
2018-08-25T06:21:26.739Z,99733.52
2018-08-25T06:23:54.420Z,99736.84
2018-08-25T06:26:22.114Z,99728.08
2018-08-25T06:28:49.818Z,99732.28
2018-08-25T06:31:17.534Z,99727.44
2018-08-25T06:33:45.220Z,99732.67
2018-08-25T06:36:12.952Z,99732.86
2018-08-25T06:38:40.657Z,99733.13
2018-08-25T06:41:08.417Z,99739.42
2018-08-25T06:43:36.123Z,99737.19
2018-08-25T06:46:06.734Z,99742.30
2018-08-25T06:48:35.196Z,99748.43
2018-08-25T06:51:02.960Z,99743.75
2018-08-25T06:53:30.697Z,99750.80
2018-08-25T06:55:58.398Z,99753.56
2018-08-25T06:58:26.094Z,99761.93
2018-08-25T07:00:53.998Z,99759.97
2018-08-25T07:03:22.474Z,99767.19
2018-08-25T07:05:50.164Z,99769.84
2018-08-25T07:08:17.867Z,99773.83
2018-08-25T07:10:45.681Z,99783.83
2018-08-25T07:13:13.490Z,99780.98
2018-08-25T07:15:41.172Z,99780.47
2018-08-25T07:18:08.934Z,99782.58
2018-08-25T07:20:36.605Z,99783.91
2018-08-25T07:23:04.666Z,99779.81
2018-08-25T07:25:32.378Z,99776.06
2018-08-25T07:28:00.068Z,99780.87
2018-08-25T07:30:27.771Z,99775.05
2018-08-25T07:32:55.472Z,99770.42
2018-08-25T07:35:23.181Z,99758.20
2018-08-25T07:37:50.892Z,99759.23
2018-08-25T07:40:18.602Z,99765.29
2018-08-25T07:42:46.286Z,99767.22
2018-08-25T07:45:14.020Z,99767.75
2018-08-25T07:47:41.728Z,99772.63
2018-08-25T07:50:09.766Z,99781.94
2018-08-25T07:52:37.476Z,99780.78
2018-08-25T07:55:05.312Z,99781.98
2018-08-25T07:57:33.005Z,99779.37
2018-08-25T08:00:00.702Z,99780.61
2018-08-25T08:02:28.407Z,99786.11
2018-08-25T08:04:56.087Z,99790.70
2018-08-25T08:07:23.800Z,99797.69
2018-08-25T08:09:51.516Z,99793.02
2018-08-25T08:12:19.282Z,99794.34
2018-08-25T08:14:46.990Z,99787.34
2018-08-25T08:17:14.677Z,99804.38
2018-08-25T08:19:42.353Z,99807.25
2018-08-25T08:22:10.022Z,99802.11
2018-08-25T08:24:37.710Z,99809.79
2018-08-25T08:27:05.773Z,99808.67
2018-08-25T08:29:33.451Z,99813.00
2018-08-25T08:32:01.422Z,99816.09
2018-08-25T08:34:29.114Z,99817.98
2018-08-25T08:36:56.815Z,99811.37
2018-08-25T08:39:24.533Z,99814.97
2018-08-25T08:41:52.202Z,99825.73
2018-08-25T08:44:19.887Z,99830.33
2018-08-25T08:46:47.589Z,99824.70
2018-08-25T08:49:15.251Z,99831.15
2018-08-25T08:51:42.941Z,99833.33
2018-08-25T08:54:10.702Z,99838.80
2018-08-25T08:56:38.405Z,99843.30
2018-08-25T08:59:06.139Z,99849.61
2018-08-25T09:01:34.747Z,99849.05
2018-08-25T09:04:02.448Z,99858.23
2018-08-25T09:06:30.162Z,99850.30
2018-08-25T09:08:57.858Z,99852.27
2018-08-25T09:11:25.669Z,99860.55
2018-08-25T09:13:53.335Z,99860.55
2018-08-25T09:16:21.374Z,99857.59
2018-08-25T09:18:49.185Z,99860.95
2018-08-25T09:21:16.973Z,99857.25
2018-08-25T09:23:44.617Z,99865.48
2018-08-25T09:26:12.293Z,99866.56
2018-08-25T09:28:39.990Z,99862.23
2018-08-25T09:31:07.664Z,99858.88
2018-08-25T09:33:35.312Z,99857.50
2018-08-25T09:36:03.000Z,99864.34
2018-08-25T09:38:30.637Z,99865.58
2018-08-25T09:40:58.307Z,99860.00
2018-08-25T09:43:26.229Z,99856.73
2018-08-25T09:45:53.898Z,99864.25
2018-08-25T09:48:21.578Z,99866.83
2018-08-25T09:50:49.224Z,99867.92
2018-08-25T09:53:16.893Z,99871.31
2018-08-25T09:55:44.553Z,99876.56
2018-08-25T09:58:12.232Z,99878.23
2018-08-25T10:00:39.890Z,99882.36
2018-08-25T10:03:07.550Z,99883.99
2018-08-25T10:05:35.254Z,99887.55
2018-08-25T10:08:03.006Z,99886.91
2018-08-25T10:10:30.714Z,99889.61
2018-08-25T10:12:58.438Z,99896.09
2018-08-25T10:15:26.191Z,99893.00
2018-08-25T10:17:53.881Z,99898.00
2018-08-25T10:20:21.585Z,99901.59
2018-08-25T10:22:49.312Z,99896.61
2018-08-25T10:25:16.976Z,99904.80
2018-08-25T10:27:44.609Z,99904.70
2018-08-25T10:30:12.247Z,99909.86
2018-08-25T10:32:39.995Z,99905.55
2018-08-25T10:35:07.693Z,99908.29
2018-08-25T10:37:35.410Z,99908.16
2018-08-25T10:40:03.206Z,99911.47
2018-08-25T10:42:30.936Z,99911.36
2018-08-25T10:44:58.612Z,99914.20
2018-08-25T10:47:26.259Z,99907.23
2018-08-25T10:49:53.931Z,99911.52
2018-08-25T10:52:21.709Z,99905.98
2018-08-25T10:54:49.397Z,99912.54
2018-08-25T10:57:17.088Z,99909.08
2018-08-25T10:59:44.759Z,99902.21
2018-08-25T11:02:21.598Z,99903.32
2018-08-25T11:04:49.410Z,99909.73
2018-08-25T11:07:17.174Z,99908.73
2018-08-25T11:09:44.844Z,99914.70
2018-08-25T11:12:12.544Z,99916.71
2018-08-25T11:14:40.204Z,99919.38
2018-08-25T11:17:07.893Z,99917.42
2018-08-25T11:19:35.580Z,99924.45
2018-08-25T11:22:03.313Z,99924.51
2018-08-25T11:24:31.021Z,99921.01
2018-08-25T11:26:58.706Z,99923.85
2018-08-25T11:29:26.411Z,99923.20
2018-08-25T11:31:54.038Z,99926.72
2018-08-25T11:34:21.744Z,99935.69
2018-08-25T11:36:49.645Z,99938.21
2018-08-25T11:39:17.305Z,99935.59
2018-08-25T11:41:44.967Z,99930.98
2018-08-25T11:44:12.639Z,99931.41
2018-08-25T11:46:40.313Z,99928.52
2018-08-25T11:49:08.001Z,99928.72
2018-08-25T11:51:35.678Z,99932.02
2018-08-25T11:54:03.413Z,99940.81
2018-08-25T11:56:31.072Z,99939.63
2018-08-25T11:58:58.737Z,99933.70
2018-08-25T12:01:26.404Z,99942.70
2018-08-25T12:03:54.070Z,99939.93
2018-08-25T12:06:21.934Z,99938.25
2018-08-25T12:08:49.585Z,99937.60
2018-08-25T12:11:17.242Z,99936.31
2018-08-25T12:13:44.949Z,99943.44
2018-08-25T12:16:12.626Z,99941.34
2018-08-25T12:18:40.277Z,99944.83
2018-08-25T12:21:07.991Z,99946.14
2018-08-25T12:23:35.703Z,99942.78
2018-08-25T12:26:03.448Z,99942.44
2018-08-25T12:28:31.157Z,99942.42
2018-08-25T12:30:58.820Z,99937.58
2018-08-25T12:33:26.564Z,99935.09
2018-08-25T12:35:54.197Z,99931.45
2018-08-25T12:38:21.854Z,99944.48
2018-08-25T12:40:49.530Z,99942.14
2018-08-25T12:43:17.269Z,99954.47
2018-08-25T12:45:44.905Z,99972.14
2018-08-25T12:48:12.576Z,99980.69
2018-08-25T12:50:40.249Z,99981.68
2018-08-25T12:53:07.921Z,99985.86
2018-08-25T12:55:35.584Z,99998.80
2018-08-25T12:58:03.356Z,99999.08
2018-08-25T13:00:30.968Z,100001.44
2018-08-25T13:02:58.718Z,99998.09
2018-08-25T13:05:26.377Z,100008.24
2018-08-25T13:07:54.102Z,100009.38
2018-08-25T13:10:21.774Z,100006.73
2018-08-25T13:12:49.438Z,100014.19
2018-08-25T13:15:17.110Z,100015.39
2018-08-25T13:17:44.771Z,100014.58
2018-08-25T13:20:12.451Z,100016.94
2018-08-25T13:22:40.117Z,100015.09
2018-08-25T13:25:07.854Z,100011.71
2018-08-25T13:27:35.570Z,100012.88
2018-08-25T13:30:03.409Z,100014.89
2018-08-25T13:32:31.814Z,100026.30
2018-08-25T13:34:59.484Z,100014.81
2018-08-25T13:37:27.192Z,100017.28
2018-08-25T13:39:54.942Z,100024.01
2018-08-25T13:42:22.638Z,100024.32
2018-08-25T13:44:50.388Z,100017.48
2018-08-25T13:47:18.078Z,100028.38
2018-08-25T13:49:45.746Z,100034.43
2018-08-25T13:52:13.940Z,100032.50
2018-08-25T13:54:41.631Z,100037.47
2018-08-25T13:57:09.334Z,100032.66
2018-08-25T13:59:37.032Z,100032.55
2018-08-25T14:02:04.758Z,100035.27
2018-08-25T14:04:32.425Z,100040.94
2018-08-25T14:07:00.106Z,100042.61
2018-08-25T14:09:27.929Z,100042.47
2018-08-25T14:11:55.654Z,100042.23
2018-08-25T14:14:23.346Z,100046.91
2018-08-25T14:16:51.027Z,100047.98
2018-08-25T14:19:18.730Z,100053.52
2018-08-25T14:21:46.437Z,100049.02
2018-08-25T14:24:14.136Z,100052.01
2018-08-25T14:26:41.860Z,100059.20
2018-08-25T14:29:09.602Z,100061.72
2018-08-25T14:31:37.344Z,100063.00
2018-08-25T14:34:05.181Z,100065.19
2018-08-25T14:36:32.932Z,100066.91
2018-08-25T14:39:00.664Z,100059.70
2018-08-25T14:41:28.346Z,100057.08
2018-08-25T14:43:56.035Z,100071.77
2018-08-25T14:46:23.680Z,100071.72
2018-08-25T14:48:51.382Z,100075.60
2018-08-25T14:51:19.065Z,100071.26
2018-08-25T14:53:46.773Z,100076.96
2018-08-25T14:56:14.548Z,100078.25
2018-08-25T14:58:42.224Z,100083.47
2018-08-25T15:01:09.892Z,100083.79
2018-08-25T15:03:37.632Z,100077.11
2018-08-25T15:06:05.480Z,100083.16
2018-08-25T15:08:33.149Z,100089.31
2018-08-25T15:11:00.821Z,100088.48
2018-08-25T15:13:28.658Z,100087.80
2018-08-25T15:15:56.326Z,100089.05
2018-08-25T15:18:24.043Z,100101.44
2018-08-25T15:20:51.924Z,100097.94
2018-08-25T15:23:20.703Z,100111.69
2018-08-25T15:25:48.440Z,100119.98
2018-08-25T15:28:16.267Z,100108.31
2018-08-25T15:30:44.118Z,100114.22
2018-08-25T15:33:11.989Z,100116.19
2018-08-25T15:35:39.822Z,100108.06
2018-08-25T15:38:07.663Z,100109.59
2018-08-25T15:40:35.519Z,100104.27
2018-08-25T15:43:03.523Z,100105.77
2018-08-25T15:45:31.322Z,100111.30
2018-08-25T15:47:59.056Z,100110.50
2018-08-25T15:50:26.898Z,100105.19
2018-08-25T15:52:54.759Z,100116.52
2018-08-25T15:55:22.520Z,100117.56
2018-08-25T15:57:50.551Z,100119.38
2018-08-25T16:00:18.266Z,100118.91
2018-08-25T16:02:46.042Z,100115.03
2018-08-25T16:05:14.012Z,100121.91
2018-08-25T16:07:41.846Z,100112.67
2018-08-25T16:10:09.875Z,100112.06
2018-08-25T16:12:37.748Z,100115.69
2018-08-25T16:15:05.598Z,100125.20
2018-08-25T16:17:33.382Z,100126.02
2018-08-25T16:20:01.374Z,100129.52
2018-08-25T16:22:29.148Z,100127.84
2018-08-25T16:24:56.996Z,100130.20
2018-08-25T16:27:24.845Z,100133.56
2018-08-25T16:29:52.587Z,100130.98
2018-08-25T16:32:20.320Z,100134.88
2018-08-25T16:34:48.160Z,100138.30
2018-08-25T16:37:16.778Z,100135.25
2018-08-25T16:39:44.532Z,100142.81
2018-08-25T16:42:12.380Z,100143.09
2018-08-25T16:44:40.464Z,100150.00
2018-08-25T16:47:08.298Z,100153.92
2018-08-25T16:49:36.108Z,100150.99
2018-08-25T16:52:03.867Z,100154.27
2018-08-25T16:54:31.614Z,100151.20
2018-08-25T16:56:59.436Z,100149.44
2018-08-25T16:59:27.166Z,100153.73
2018-08-25T17:01:54.917Z,100154.59
2018-08-25T17:04:22.749Z,100157.14
2018-08-25T17:06:50.513Z,100160.33
2018-08-25T17:09:18.252Z,100153.22
2018-08-25T17:11:46.072Z,100154.77
2018-08-25T17:14:13.773Z,100156.23
2018-08-25T17:16:41.554Z,100154.72
2018-08-25T17:19:09.342Z,100158.77
2018-08-25T17:21:37.017Z,100156.92
2018-08-25T17:24:04.741Z,100160.62
2018-08-25T17:26:32.572Z,100165.23
2018-08-25T17:29:00.255Z,100178.08
2018-08-25T17:31:27.994Z,100163.46
2018-08-25T17:33:55.816Z,100171.50
2018-08-25T17:36:23.545Z,100178.57
2018-08-25T17:38:51.279Z,100173.05
2018-08-25T17:41:19.115Z,100171.70
2018-08-25T17:43:46.862Z,100178.55
2018-08-25T17:46:14.736Z,100183.98
2018-08-25T17:48:42.546Z,100188.97
2018-08-25T17:51:10.294Z,100180.89
2018-08-25T17:53:37.934Z,100190.56
2018-08-25T17:56:06.045Z,100193.50
2018-08-25T17:58:33.857Z,100167.23
2018-08-25T18:01:01.578Z,100198.05
2018-08-25T18:03:29.419Z,100194.16
2018-08-25T18:05:57.118Z,100196.31
2018-08-25T18:08:24.824Z,100200.64
2018-08-25T18:10:52.675Z,100199.66
2018-08-25T18:13:20.347Z,100202.55
2018-08-25T18:15:48.034Z,100203.05
2018-08-25T18:18:15.862Z,100208.23
2018-08-25T18:20:43.554Z,100212.49
2018-08-25T18:23:11.334Z,100213.15
2018-08-25T18:25:39.188Z,100212.77
2018-08-25T18:28:06.888Z,100220.77
2018-08-25T18:30:34.545Z,100228.96
2018-08-25T18:33:02.362Z,100236.66
2018-08-25T18:35:30.774Z,100225.69
2018-08-25T18:37:58.569Z,100222.25
2018-08-25T18:40:26.490Z,100223.78
2018-08-25T18:42:54.246Z,100226.28
2018-08-25T18:45:22.344Z,100228.19
2018-08-25T18:47:50.138Z,100235.77
2018-08-25T18:50:17.863Z,100246.59
2018-08-25T18:52:46.566Z,100233.44
2018-08-25T18:55:14.428Z,100238.75
2018-08-25T18:57:42.149Z,100237.40
2018-08-25T19:00:09.972Z,100239.44
2018-08-25T19:02:37.764Z,100241.20
2018-08-25T19:05:05.481Z,100245.98
2018-08-25T19:07:33.177Z,100240.50
2018-08-25T19:10:01.105Z,100240.42
2018-08-25T19:12:28.904Z,100244.13
2018-08-25T19:14:56.672Z,100247.22
2018-08-25T19:17:24.561Z,100249.02
2018-08-25T19:19:52.220Z,100249.80
2018-08-25T19:22:19.913Z,100259.24
2018-08-25T19:24:47.711Z,100256.98
2018-08-25T19:27:15.381Z,100262.59
2018-08-25T19:29:43.137Z,100262.59
2018-08-25T19:32:10.942Z,100267.13
2018-08-25T19:34:38.609Z,100267.45
2018-08-25T19:37:06.382Z,100270.55
2018-08-25T19:39:34.156Z,100265.25
2018-08-25T19:42:01.812Z,100281.05
2018-08-25T19:44:29.481Z,100281.48
2018-08-25T19:46:57.502Z,100288.31
2018-08-25T19:49:25.173Z,100290.90
2018-08-25T19:51:52.850Z,100294.67
2018-08-25T19:54:20.825Z,100289.73
2018-08-25T19:56:48.578Z,100292.55
2018-08-25T19:59:16.246Z,100294.47
2018-08-25T20:01:44.302Z,100291.66
2018-08-25T20:04:11.978Z,100296.71
2018-08-25T20:06:39.646Z,100303.90
2018-08-25T20:09:08.022Z,100303.12
2018-08-25T20:11:35.825Z,100308.50
2018-08-25T20:14:03.718Z,100300.80
2018-08-25T20:16:31.429Z,100302.87
2018-08-25T20:18:59.107Z,100305.91
2018-08-25T20:21:26.779Z,100311.68
2018-08-25T20:23:54.475Z,100306.27
2018-08-25T20:26:22.122Z,100307.89
2018-08-25T20:28:49.838Z,100311.08
2018-08-25T20:31:17.530Z,100323.86
2018-08-25T20:33:45.214Z,100324.44
2018-08-25T20:36:12.897Z,100329.72
2018-08-25T20:38:40.604Z,100329.52
2018-08-25T20:41:08.278Z,100336.25
2018-08-25T20:43:35.953Z,100339.48
2018-08-25T20:46:03.664Z,100332.89
2018-08-25T20:48:31.311Z,100330.97
2018-08-25T20:50:59.016Z,100341.55
2018-08-25T20:53:26.705Z,100337.70
2018-08-25T20:55:54.401Z,100341.91
2018-08-25T20:58:22.074Z,100341.33
2018-08-25T21:00:49.916Z,100340.73
2018-08-25T21:03:17.545Z,100339.44
2018-08-25T21:05:45.254Z,100347.40
2018-08-25T21:08:12.909Z,100350.77
2018-08-25T21:10:40.567Z,100351.89
2018-08-25T21:13:08.255Z,100350.31
2018-08-25T21:15:35.902Z,100351.44
2018-08-25T21:18:03.657Z,100368.44
2018-08-25T21:20:31.498Z,100358.30
2018-08-25T21:22:59.259Z,100356.28
2018-08-25T21:25:26.893Z,100357.66
2018-08-25T21:27:54.565Z,100361.84
2018-08-25T21:30:22.213Z,100356.00
2018-08-25T21:32:49.883Z,100363.20
2018-08-25T21:35:17.554Z,100360.59
2018-08-25T21:37:45.226Z,100359.01
2018-08-25T21:40:12.898Z,100360.11
2018-08-25T21:42:40.570Z,100359.52
2018-08-25T21:45:08.233Z,100369.03
2018-08-25T21:47:35.897Z,100363.25
2018-08-25T21:50:03.702Z,100359.72
2018-08-25T21:52:31.389Z,100360.09
2018-08-25T21:54:59.074Z,100367.61
2018-08-25T21:57:26.750Z,100367.25
2018-08-25T21:59:54.459Z,100364.03
2018-08-25T22:02:22.137Z,100362.84
2018-08-25T22:04:49.814Z,100368.85
2018-08-25T22:07:17.502Z,100358.59
2018-08-25T22:09:45.207Z,100368.92
2018-08-25T22:12:12.877Z,100367.38
2018-08-25T22:14:40.536Z,100368.30
2018-08-25T22:17:08.239Z,100365.33
2018-08-25T22:19:35.947Z,100380.25
2018-08-25T22:22:03.629Z,100380.95
2018-08-25T22:24:31.319Z,100371.41
2018-08-25T22:26:59.005Z,100377.79
2018-08-25T22:29:26.676Z,100376.37
2018-08-25T22:31:54.347Z,100376.39
2018-08-25T22:34:22.054Z,100385.48
2018-08-25T22:36:49.737Z,100386.79
2018-08-25T22:39:17.447Z,100379.62
2018-08-25T22:41:45.211Z,100381.22
2018-08-25T22:44:12.834Z,100382.09
2018-08-25T22:46:40.507Z,100374.11
2018-08-25T22:49:08.626Z,100382.18
2018-08-25T22:51:36.382Z,100381.87
2018-08-25T22:54:04.093Z,100380.73
2018-08-25T22:56:31.759Z,100383.70
2018-08-25T22:58:59.450Z,100376.48
2018-08-25T23:01:27.159Z,100373.56
2018-08-25T23:03:54.860Z,100369.99
2018-08-25T23:06:22.551Z,100375.42
2018-08-25T23:08:50.219Z,100377.16
2018-08-25T23:11:17.896Z,100376.50
2018-08-25T23:13:45.562Z,100376.80
2018-08-25T23:16:13.269Z,100372.07
2018-08-25T23:18:40.931Z,100373.84
2018-08-25T23:21:08.988Z,100372.50
2018-08-25T23:23:36.670Z,100335.41
2018-08-25T23:26:04.345Z,100372.26
2018-08-25T23:28:32.063Z,100368.63
2018-08-25T23:30:59.762Z,100378.12
2018-08-25T23:33:27.557Z,100393.29
2018-08-25T23:35:55.242Z,100388.91
2018-08-25T23:38:22.911Z,100383.70
2018-08-25T23:40:50.594Z,100385.46
2018-08-25T23:43:18.265Z,100385.23
2018-08-25T23:45:45.932Z,100396.94
2018-08-25T23:48:13.685Z,100392.03
2018-08-25T23:50:41.301Z,100388.63
2018-08-25T23:53:08.981Z,100391.23
2018-08-25T23:55:36.629Z,100391.12
2018-08-25T23:58:04.509Z,100390.32
